createdAt,value
2023-06-12T00:00:33.757Z,159.22
2023-06-12T00:01:34.741Z,159.07
2023-06-12T00:02:33.952Z,158.69
2023-06-12T00:03:33.952Z,160.20
2023-06-12T00:04:33.849Z,159.40
2023-06-12T00:05:33.846Z,160.98
2023-06-12T00:06:33.838Z,159.78
2023-06-12T00:07:33.889Z,159.69
2023-06-12T00:08:33.904Z,161.14
2023-06-12T00:09:33.910Z,159.60
2023-06-12T00:10:33.922Z,161.47
2023-06-12T00:11:33.944Z,159.36
2023-06-12T00:12:33.964Z,158.41
2023-06-12T00:13:33.954Z,159.15
2023-06-12T00:14:33.973Z,160.21
2023-06-12T00:15:33.989Z,159.12
2023-06-12T00:16:34.096Z,159.27
2023-06-12T00:17:34.195Z,158.54
2023-06-12T00:18:34.000Z,158.03
2023-06-12T00:19:34.000Z,158.69
2023-06-12T00:20:34.020Z,158.56
2023-06-12T00:21:34.009Z,158.89
2023-06-12T00:22:34.008Z,158.84
2023-06-12T00:23:34.007Z,158.50
2023-06-12T00:24:34.091Z,159.35
2023-06-12T00:25:34.011Z,158.69
2023-06-12T00:26:34.010Z,157.97
2023-06-12T00:27:34.032Z,159.77
2023-06-12T00:28:34.018Z,159.05
2023-06-12T00:29:34.011Z,158.64
2023-06-12T00:30:34.025Z,158.23
2023-06-12T00:31:34.776Z,157.64
2023-06-12T00:32:34.196Z,158.47
2023-06-12T00:33:34.067Z,157.88
2023-06-12T00:34:34.076Z,158.95
2023-06-12T00:35:34.099Z,158.76
2023-06-12T00:36:34.092Z,157.68
2023-06-12T00:37:34.093Z,158.92
2023-06-12T00:38:34.111Z,157.60
2023-06-12T00:39:34.184Z,157.93
2023-06-12T00:40:34.135Z,158.21
2023-06-12T00:41:34.146Z,156.85
2023-06-12T00:42:34.180Z,157.97
2023-06-12T00:43:34.174Z,158.53
2023-06-12T00:44:34.199Z,156.53
2023-06-12T00:45:34.236Z,157.25
2023-06-12T00:46:34.306Z,157.88
2023-06-12T00:47:34.231Z,155.75
2023-06-12T00:48:34.220Z,157.59
2023-06-12T00:49:34.220Z,157.75
2023-06-12T00:50:34.236Z,155.94
2023-06-12T00:51:34.265Z,157.37
2023-06-12T00:52:34.241Z,156.62
2023-06-12T00:53:34.248Z,155.54
2023-06-12T00:54:34.252Z,156.08
2023-06-12T00:55:34.266Z,155.94
2023-06-12T00:56:34.260Z,156.43
2023-06-12T00:57:34.260Z,157.52
2023-06-12T00:58:34.285Z,155.23
2023-06-12T00:59:34.283Z,156.76
2023-06-12T01:00:34.289Z,156.18
2023-06-12T01:01:34.339Z,154.64
2023-06-12T01:02:34.339Z,156.46
2023-06-12T01:03:34.515Z,157.77
2023-06-12T01:04:34.388Z,156.06
2023-06-12T01:05:34.835Z,155.27
2023-06-12T01:06:34.329Z,157.26
2023-06-12T01:07:34.335Z,157.07
2023-06-12T01:08:34.330Z,154.27
2023-06-12T01:09:34.389Z,156.41
2023-06-12T01:10:34.414Z,154.97
2023-06-12T01:11:34.355Z,156.21
2023-06-12T01:12:34.357Z,154.36
2023-06-12T01:13:34.464Z,156.54
2023-06-12T01:14:34.379Z,156.56
2023-06-12T01:15:34.373Z,156.89
2023-06-12T01:16:34.472Z,154.65
2023-06-12T01:17:34.429Z,156.88
2023-06-12T01:18:34.399Z,154.83
2023-06-12T01:19:34.406Z,154.65
2023-06-12T01:20:34.422Z,155.97
2023-06-12T01:21:34.501Z,154.26
2023-06-12T01:22:34.476Z,153.48
2023-06-12T01:23:34.421Z,156.02
2023-06-12T01:24:34.431Z,156.03
2023-06-12T01:25:34.448Z,156.03
2023-06-12T01:26:34.546Z,157.00
2023-06-12T01:27:34.459Z,155.96
2023-06-12T01:28:34.466Z,155.70
2023-06-12T01:29:34.466Z,155.15
2023-06-12T01:30:34.475Z,154.57
2023-06-12T01:31:34.530Z,154.63
2023-06-12T01:32:34.527Z,154.80
2023-06-12T01:33:34.540Z,155.31
2023-06-12T01:34:34.491Z,154.65
2023-06-12T01:35:34.534Z,155.52
2023-06-12T01:36:34.602Z,153.86
2023-06-12T01:37:34.512Z,156.14
2023-06-12T01:38:34.517Z,155.54
2023-06-12T01:39:34.527Z,154.21
2023-06-12T01:40:34.519Z,153.70
2023-06-12T01:41:34.529Z,153.56
2023-06-12T01:42:34.539Z,153.38
2023-06-12T01:43:34.557Z,153.73
2023-06-12T01:44:34.561Z,153.33
2023-06-12T01:45:34.554Z,155.56
2023-06-12T01:46:34.600Z,153.17
2023-06-12T01:47:34.658Z,154.15
2023-06-12T01:48:34.588Z,153.68
2023-06-12T01:49:34.606Z,154.24
2023-06-12T01:50:34.673Z,153.08
2023-06-12T01:51:34.611Z,155.12
2023-06-12T01:52:34.785Z,155.17
2023-06-12T01:53:36.885Z,154.25
2023-06-12T01:54:34.830Z,156.47
2023-06-12T01:55:34.884Z,153.50
2023-06-12T01:56:34.850Z,153.94
2023-06-12T01:57:34.920Z,152.95
2023-06-12T01:58:34.871Z,153.38
2023-06-12T01:59:34.881Z,153.78
2023-06-12T02:00:34.911Z,154.30
2023-06-12T02:01:34.974Z,154.92
2023-06-12T02:02:35.061Z,153.61
2023-06-12T02:03:34.985Z,152.98
2023-06-12T02:04:34.941Z,152.44
2023-06-12T02:05:34.969Z,151.91
2023-06-12T02:06:34.981Z,153.20
2023-06-12T02:07:34.983Z,151.26
2023-06-12T02:08:34.991Z,153.12
2023-06-12T02:09:35.010Z,151.72
2023-06-12T02:10:35.022Z,150.38
2023-06-12T02:11:35.028Z,151.48
2023-06-12T02:12:35.117Z,150.20
2023-06-12T02:13:35.069Z,151.63
2023-06-12T02:14:35.084Z,149.96
2023-06-12T02:15:35.175Z,148.49
2023-06-12T02:16:35.143Z,151.61
2023-06-12T02:17:35.186Z,149.93
2023-06-12T02:18:35.144Z,151.25
2023-06-12T02:19:35.154Z,149.81
2023-06-12T02:20:37.788Z,150.11
2023-06-12T02:21:35.400Z,150.31
2023-06-12T02:22:35.433Z,148.19
2023-06-12T02:23:35.442Z,148.38
2023-06-12T02:24:35.504Z,148.15
2023-06-12T02:25:35.438Z,147.81
2023-06-12T02:26:35.474Z,147.64
2023-06-12T02:27:35.528Z,146.61
2023-06-12T02:28:35.491Z,147.90
2023-06-12T02:29:35.482Z,147.84
2023-06-12T02:30:35.519Z,147.40
2023-06-12T02:31:35.538Z,148.24
2023-06-12T02:32:35.587Z,145.46
2023-06-12T02:33:35.542Z,147.28
2023-06-12T02:34:35.563Z,145.93
2023-06-12T02:35:35.575Z,148.23
2023-06-12T02:36:35.583Z,146.07
2023-06-12T02:37:35.606Z,146.78
2023-06-12T02:38:35.631Z,145.00
2023-06-12T02:39:35.643Z,145.75
2023-06-12T02:40:35.714Z,145.07
2023-06-12T02:41:35.669Z,146.72
2023-06-12T02:42:35.678Z,146.15
2023-06-12T02:43:35.699Z,146.67
2023-06-12T02:44:35.707Z,146.83
2023-06-12T02:45:35.748Z,144.75
2023-06-12T02:46:35.808Z,146.27
2023-06-12T02:47:35.895Z,145.62
2023-06-12T02:48:35.793Z,145.79
2023-06-12T02:49:36.306Z,145.80
2023-06-12T02:50:35.812Z,145.79
2023-06-12T02:51:35.818Z,144.07
2023-06-12T02:52:35.837Z,144.56
2023-06-12T02:53:35.868Z,143.70
2023-06-12T02:54:35.873Z,145.75
2023-06-12T02:55:35.889Z,143.31
2023-06-12T02:56:35.914Z,141.81
2023-06-12T02:57:35.929Z,143.93
2023-06-12T02:58:35.957Z,144.07
2023-06-12T02:59:35.967Z,143.13
2023-06-12T03:00:35.997Z,142.90
2023-06-12T03:01:36.097Z,143.29
2023-06-12T03:02:36.105Z,142.38
2023-06-12T03:03:36.126Z,145.09
2023-06-12T03:04:36.101Z,144.42
2023-06-12T03:05:36.116Z,142.45
2023-06-12T03:06:36.123Z,142.55
2023-06-12T03:07:36.139Z,144.48
2023-06-12T03:08:36.158Z,146.23
2023-06-12T03:09:36.195Z,145.75
2023-06-12T03:10:36.209Z,142.21
2023-06-12T03:11:36.254Z,142.15
2023-06-12T03:12:36.265Z,143.97
2023-06-12T03:13:36.272Z,142.91
2023-06-12T03:14:36.298Z,144.54
2023-06-12T03:15:36.356Z,141.23
2023-06-12T03:16:36.368Z,142.36
2023-06-12T03:17:36.387Z,141.50
2023-06-12T03:18:36.410Z,143.43
2023-06-12T03:19:36.425Z,144.91
2023-06-12T03:20:36.452Z,144.82
2023-06-12T03:21:36.538Z,143.66
2023-06-12T03:22:36.510Z,144.18
2023-06-12T03:23:36.556Z,143.30
2023-06-12T03:24:36.562Z,144.02
2023-06-12T03:25:36.574Z,142.14
2023-06-12T03:26:36.610Z,144.28
2023-06-12T03:27:36.675Z,143.19
2023-06-12T03:28:37.313Z,143.51
2023-06-12T03:29:36.685Z,143.98
2023-06-12T03:30:36.702Z,143.68
2023-06-12T03:31:36.917Z,144.10
2023-06-12T03:32:36.779Z,143.75
2023-06-12T03:33:36.775Z,145.38
2023-06-12T03:34:36.808Z,145.20
2023-06-12T03:35:36.830Z,145.35
2023-06-12T03:36:36.852Z,143.80
2023-06-12T03:37:36.889Z,143.04
2023-06-12T03:38:36.906Z,143.39
2023-06-12T03:39:36.937Z,143.82
2023-06-12T03:40:36.977Z,145.06
2023-06-12T03:41:36.993Z,144.33
2023-06-12T03:42:37.030Z,142.14
2023-06-12T03:43:37.056Z,144.84
2023-06-12T03:44:37.093Z,144.74
2023-06-12T03:45:37.112Z,142.91
2023-06-12T03:46:37.185Z,143.08
2023-06-12T03:47:37.212Z,143.82
2023-06-12T03:48:37.825Z,144.36
2023-06-12T03:49:37.240Z,144.65
2023-06-12T03:50:37.265Z,145.12
2023-06-12T03:51:37.282Z,143.38
2023-06-12T03:52:37.315Z,144.09
2023-06-12T03:53:37.344Z,144.22
2023-06-12T03:54:37.368Z,143.19
2023-06-12T03:55:37.393Z,143.25
2023-06-12T03:56:37.422Z,144.21
2023-06-12T03:57:37.447Z,143.31
2023-06-12T03:58:38.330Z,145.44
2023-06-12T03:59:37.495Z,142.72
2023-06-12T04:00:37.518Z,142.63
2023-06-12T04:01:37.536Z,144.65
2023-06-12T04:02:37.706Z,143.29
2023-06-12T04:03:37.666Z,141.72
2023-06-12T04:04:37.682Z,143.67
2023-06-12T04:05:37.634Z,143.69
2023-06-12T04:06:37.660Z,142.81
2023-06-12T04:07:37.700Z,142.33
2023-06-12T04:08:37.710Z,144.07
2023-06-12T04:09:37.737Z,142.63
2023-06-12T04:10:37.752Z,142.85
2023-06-12T04:11:37.864Z,142.93
2023-06-12T04:12:37.873Z,141.67
2023-06-12T04:13:37.819Z,144.34
2023-06-12T04:14:40.197Z,141.84
2023-06-12T04:15:37.890Z,144.63
2023-06-12T04:16:37.907Z,145.82
2023-06-12T04:17:37.863Z,145.39
2023-06-12T04:18:37.868Z,146.97
2023-06-12T04:19:40.830Z,143.98
2023-06-12T04:20:37.919Z,144.15
2023-06-12T04:21:37.839Z,144.33
2023-06-12T04:22:37.833Z,144.19
2023-06-12T04:23:37.880Z,144.45
2023-06-12T04:24:37.874Z,144.75
2023-06-12T04:25:37.861Z,142.27
2023-06-12T04:26:37.835Z,142.03
2023-06-12T04:27:37.844Z,141.30
2023-06-12T04:28:37.893Z,142.38
2023-06-12T04:29:37.829Z,141.30
2023-06-12T04:30:37.828Z,140.81
2023-06-12T04:31:37.972Z,142.52
2023-06-12T04:32:37.893Z,141.15
2023-06-12T04:33:37.838Z,140.02
2023-06-12T04:34:37.836Z,140.21
2023-06-12T04:35:37.832Z,139.73
2023-06-12T04:36:37.827Z,139.23
2023-06-12T04:37:37.840Z,139.37
2023-06-12T04:38:38.338Z,139.44
2023-06-12T04:39:37.837Z,138.19
2023-06-12T04:40:37.909Z,138.85
2023-06-12T04:41:37.836Z,137.85
2023-06-12T04:42:37.832Z,139.17
2023-06-12T04:43:37.904Z,136.22
2023-06-12T04:44:37.833Z,137.44
2023-06-12T04:45:37.917Z,137.24
2023-06-12T04:46:37.836Z,136.97
2023-06-12T04:47:37.895Z,135.92
2023-06-12T04:48:37.873Z,134.43
2023-06-12T04:49:37.881Z,136.35
2023-06-12T04:50:37.840Z,136.89
2023-06-12T04:51:37.816Z,136.26
2023-06-12T04:52:37.830Z,134.79
2023-06-12T04:53:37.833Z,135.85
2023-06-12T04:54:37.883Z,131.92
2023-06-12T04:55:37.821Z,134.87
2023-06-12T04:56:37.820Z,132.47
2023-06-12T04:57:37.836Z,132.92
2023-06-12T04:58:37.821Z,133.72
2023-06-12T04:59:37.808Z,133.71
2023-06-12T05:00:37.925Z,130.51
2023-06-12T05:01:37.812Z,132.48
2023-06-12T05:02:37.880Z,132.31
2023-06-12T05:03:37.820Z,131.69
2023-06-12T05:04:37.812Z,131.73
2023-06-12T05:05:37.802Z,130.77
2023-06-12T05:06:37.791Z,131.32
2023-06-12T05:07:37.874Z,131.14
2023-06-12T05:08:37.796Z,130.58
2023-06-12T05:09:37.804Z,131.27
2023-06-12T05:10:37.801Z,131.98
2023-06-12T05:11:37.816Z,130.36
2023-06-12T05:12:37.808Z,133.34
2023-06-12T05:13:37.802Z,132.13
2023-06-12T05:14:38.369Z,130.43
2023-06-12T05:15:37.806Z,132.19
2023-06-12T05:16:37.820Z,131.31
2023-06-12T05:17:38.001Z,134.93
2023-06-12T05:18:37.816Z,135.97
2023-06-12T05:19:37.800Z,136.40
2023-06-12T05:20:37.812Z,140.21
2023-06-12T05:21:37.806Z,141.54
2023-06-12T05:22:37.883Z,138.51
2023-06-12T05:23:37.897Z,142.31
2023-06-12T05:24:37.819Z,143.19
2023-06-12T05:25:37.943Z,149.59
2023-06-12T05:26:37.819Z,149.25
2023-06-12T05:27:39.879Z,150.50
2023-06-12T05:28:37.793Z,150.69
2023-06-12T05:29:37.803Z,150.93
2023-06-12T05:30:37.858Z,150.83
2023-06-12T05:31:39.332Z,151.57
2023-06-12T05:32:37.827Z,155.55
2023-06-12T05:33:37.790Z,154.22
2023-06-12T05:34:37.782Z,151.97
2023-06-12T05:35:37.791Z,153.41
2023-06-12T05:36:37.794Z,150.77
2023-06-12T05:37:37.793Z,151.22
2023-06-12T05:38:37.875Z,150.16
2023-06-12T05:39:37.830Z,150.76
2023-06-12T05:40:37.771Z,149.78
2023-06-12T05:41:37.767Z,153.31
2023-06-12T05:42:37.772Z,151.36
2023-06-12T05:43:37.769Z,149.93
2023-06-12T05:44:37.772Z,150.38
2023-06-12T05:45:37.773Z,151.15
2023-06-12T05:46:37.944Z,151.58
2023-06-12T05:47:37.998Z,151.42
2023-06-12T05:48:37.781Z,150.83
2023-06-12T05:49:37.825Z,151.87
2023-06-12T05:50:39.529Z,149.30
2023-06-12T05:51:37.846Z,149.75
2023-06-12T05:52:40.212Z,150.53
2023-06-12T05:53:37.824Z,152.30
2023-06-12T05:54:37.832Z,151.37
2023-06-12T05:55:37.837Z,151.27
2023-06-12T05:56:37.763Z,152.74
2023-06-12T05:57:37.758Z,151.48
2023-06-12T05:58:37.742Z,150.43
2023-06-12T05:59:37.745Z,151.27
2023-06-12T06:00:37.734Z,150.43
2023-06-12T06:01:37.732Z,149.74
2023-06-12T06:02:37.881Z,150.53
2023-06-12T06:03:38.070Z,150.28
2023-06-12T06:04:38.836Z,149.95
2023-06-12T06:05:37.708Z,150.16
2023-06-12T06:06:37.707Z,150.48
2023-06-12T06:07:37.733Z,150.88
2023-06-12T06:08:37.694Z,151.11
2023-06-12T06:09:37.682Z,152.70
2023-06-12T06:10:37.673Z,150.30
2023-06-12T06:11:38.377Z,149.75
2023-06-12T06:12:37.671Z,151.45
2023-06-12T06:13:37.672Z,150.10
2023-06-12T06:14:37.656Z,150.71
2023-06-12T06:15:38.378Z,149.93
2023-06-12T06:16:52.604Z,152.69
2023-06-12T06:17:38.737Z,153.01
2023-06-12T06:18:37.689Z,153.16
2023-06-12T06:19:37.670Z,152.84
2023-06-12T06:20:37.657Z,150.66
2023-06-12T06:21:37.636Z,152.92
2023-06-12T06:22:37.632Z,149.77
2023-06-12T06:23:37.659Z,148.49
2023-06-12T06:24:37.649Z,151.11
2023-06-12T06:25:37.651Z,149.60
2023-06-12T06:26:37.639Z,150.59
2023-06-12T06:27:37.657Z,149.03
2023-06-12T06:28:37.657Z,148.94
2023-06-12T06:29:37.639Z,149.37
2023-06-12T06:30:37.658Z,148.47
2023-06-12T06:31:37.663Z,149.96
2023-06-12T06:32:37.676Z,150.44
2023-06-12T06:33:37.644Z,148.79
2023-06-12T06:34:37.647Z,148.00
2023-06-12T06:35:37.645Z,149.45
2023-06-12T06:36:37.643Z,147.88
2023-06-12T06:37:37.647Z,148.13
2023-06-12T06:38:37.644Z,148.22
2023-06-12T06:39:37.664Z,147.29
2023-06-12T06:40:37.636Z,146.84
2023-06-12T06:41:37.643Z,147.65
2023-06-12T06:42:37.648Z,149.35
2023-06-12T06:43:37.660Z,147.19
2023-06-12T06:44:38.387Z,147.41
2023-06-12T06:45:37.671Z,148.81
2023-06-12T06:46:37.824Z,147.14
2023-06-12T06:47:37.818Z,147.50
2023-06-12T06:48:37.748Z,147.30
2023-06-12T06:49:37.767Z,147.37
2023-06-12T06:50:37.892Z,148.17
2023-06-12T06:51:37.824Z,147.13
2023-06-12T06:52:37.826Z,146.70
2023-06-12T06:53:37.847Z,147.04
2023-06-12T06:54:37.923Z,148.11
2023-06-12T06:55:37.906Z,147.31
2023-06-12T06:56:37.893Z,147.17
2023-06-12T06:57:37.936Z,147.09
2023-06-12T06:58:37.935Z,147.65
2023-06-12T06:59:37.951Z,146.92
2023-06-12T07:00:37.968Z,146.91
2023-06-12T07:01:38.015Z,146.76
2023-06-12T07:02:38.032Z,146.63
2023-06-12T07:03:38.082Z,148.17
2023-06-12T07:04:38.057Z,146.83
2023-06-12T07:05:38.101Z,145.59
2023-06-12T07:06:38.144Z,144.69
2023-06-12T07:07:52.260Z,145.60
2023-06-12T07:08:39.122Z,145.90
2023-06-12T07:09:38.098Z,146.06
2023-06-12T07:10:38.105Z,146.42
2023-06-12T07:11:38.103Z,146.91
2023-06-12T07:12:38.124Z,147.15
2023-06-12T07:13:38.422Z,147.81
2023-06-12T07:14:38.107Z,143.97
2023-06-12T07:15:38.117Z,145.90
2023-06-12T07:16:38.192Z,145.63
2023-06-12T07:17:38.112Z,145.79
2023-06-12T07:18:38.096Z,145.77
2023-06-12T07:19:38.105Z,145.53
2023-06-12T07:20:38.096Z,145.25
2023-06-12T07:21:38.152Z,146.14
2023-06-12T07:22:38.093Z,146.78
2023-06-12T07:23:38.089Z,148.75
2023-06-12T07:24:38.082Z,160.94
2023-06-12T07:25:38.067Z,167.28
2023-06-12T07:26:38.208Z,174.85
2023-06-12T07:27:38.053Z,184.96
2023-06-12T07:28:38.058Z,197.07
2023-06-12T07:29:38.045Z,208.67
2023-06-12T07:30:38.043Z,221.18
2023-06-12T07:31:38.178Z,232.22
2023-06-12T07:32:38.097Z,244.29
2023-06-12T07:33:38.088Z,250.00
2023-06-12T07:34:38.127Z,250.00
2023-06-12T07:35:38.188Z,250.00
2023-06-12T07:36:38.220Z,250.00
2023-06-12T07:37:38.287Z,250.00
2023-06-12T07:38:38.402Z,250.00
2023-06-12T07:39:38.407Z,250.00
2023-06-12T07:40:39.403Z,250.14
2023-06-12T07:41:38.473Z,250.00
2023-06-12T07:42:38.531Z,250.00
2023-06-12T07:43:38.593Z,250.00
2023-06-12T07:44:38.632Z,248.95
2023-06-12T07:45:38.741Z,250.00
2023-06-12T07:46:38.735Z,250.00
2023-06-12T07:47:38.806Z,250.00
2023-06-12T07:48:38.848Z,250.00
2023-06-12T07:49:38.828Z,249.49
2023-06-12T07:50:38.862Z,250.00
2023-06-12T07:51:38.876Z,249.32
2023-06-12T07:52:38.923Z,250.00
2023-06-12T07:53:39.551Z,250.15
2023-06-12T07:54:39.833Z,250.00
2023-06-12T07:55:39.060Z,249.63
2023-06-12T07:56:39.028Z,249.74
2023-06-12T07:57:39.123Z,249.11
2023-06-12T07:58:39.082Z,250.00
2023-06-12T07:59:39.108Z,250.00
2023-06-12T08:00:39.126Z,249.49
2023-06-12T08:01:39.181Z,249.03
2023-06-12T08:02:39.245Z,250.20
2023-06-12T08:03:39.227Z,249.43
2023-06-12T08:04:39.190Z,250.00
2023-06-12T08:05:39.215Z,249.98
2023-06-12T08:06:40.012Z,249.43
2023-06-12T08:07:39.256Z,248.50
2023-06-12T08:08:39.252Z,249.95
2023-06-12T08:09:39.264Z,250.11
2023-06-12T08:10:40.078Z,250.00
2023-06-12T08:11:39.288Z,249.63
2023-06-12T08:12:39.300Z,250.00
2023-06-12T08:13:39.299Z,249.33
2023-06-12T08:14:39.298Z,249.28
2023-06-12T08:15:39.311Z,249.11
2023-06-12T08:16:39.347Z,250.63
2023-06-12T08:17:39.328Z,249.58
2023-06-12T08:18:39.432Z,249.29
2023-06-12T08:19:39.317Z,246.12
2023-06-12T08:20:39.932Z,241.69
2023-06-12T08:21:39.355Z,234.32
2023-06-12T08:22:39.370Z,229.55
2023-06-12T08:23:39.428Z,219.64
2023-06-12T08:24:39.415Z,217.79
2023-06-12T08:25:39.433Z,209.42
2023-06-12T08:26:39.452Z,205.51
2023-06-12T08:27:40.439Z,204.09
2023-06-12T08:28:39.484Z,200.31
2023-06-12T08:29:39.495Z,197.27
2023-06-12T08:30:39.516Z,193.05
2023-06-12T08:31:39.602Z,190.46
2023-06-12T08:32:39.581Z,188.80
2023-06-12T08:33:39.544Z,184.71
2023-06-12T08:34:39.555Z,182.56
2023-06-12T08:35:39.560Z,180.35
2023-06-12T08:36:39.575Z,179.32
2023-06-12T08:37:39.564Z,178.21
2023-06-12T08:38:39.566Z,179.11
2023-06-12T08:39:39.579Z,177.59
2023-06-12T08:40:39.577Z,173.88
2023-06-12T08:41:39.604Z,172.89
2023-06-12T08:42:39.669Z,172.02
2023-06-12T08:43:39.615Z,172.32
2023-06-12T08:44:39.610Z,170.06
2023-06-12T08:45:40.359Z,168.75
2023-06-12T08:46:39.654Z,169.93
2023-06-12T08:47:39.677Z,168.46
2023-06-12T08:48:39.640Z,168.76
2023-06-12T08:49:39.655Z,169.64
2023-06-12T08:50:41.031Z,169.64
2023-06-12T08:51:39.856Z,168.69
2023-06-12T08:52:39.843Z,169.08
2023-06-12T08:53:39.826Z,168.00
2023-06-12T08:54:39.802Z,168.54
2023-06-12T08:55:39.816Z,167.77
2023-06-12T08:56:39.796Z,169.63
2023-06-12T08:57:39.786Z,169.14
2023-06-12T08:58:39.856Z,169.73
2023-06-12T08:59:39.767Z,171.29
2023-06-12T09:00:39.752Z,169.71
2023-06-12T09:01:39.767Z,171.22
2023-06-12T09:02:39.841Z,172.21
2023-06-12T09:03:39.853Z,170.76
2023-06-12T09:04:39.751Z,171.69
2023-06-12T09:05:39.754Z,172.74
2023-06-12T09:06:39.699Z,172.68
2023-06-12T09:07:39.697Z,173.61
2023-06-12T09:08:39.685Z,176.65
2023-06-12T09:09:39.664Z,178.06
2023-06-12T09:10:39.669Z,181.30
2023-06-12T09:11:39.629Z,179.37
2023-06-12T09:12:39.604Z,182.11
2023-06-12T09:13:39.574Z,181.70
2023-06-12T09:14:39.721Z,183.23
2023-06-12T09:15:41.080Z,183.87
2023-06-12T09:16:39.581Z,185.18
2023-06-12T09:17:39.536Z,186.81
2023-06-12T09:18:39.568Z,185.69
2023-06-12T09:19:39.504Z,179.89
2023-06-12T09:20:43.110Z,182.51
2023-06-12T09:21:39.459Z,182.52
2023-06-12T09:22:39.955Z,179.77
2023-06-12T09:23:39.470Z,179.53
2023-06-12T09:24:39.390Z,177.57
2023-06-12T09:25:39.367Z,174.50
2023-06-12T09:26:39.335Z,173.77
2023-06-12T09:27:39.310Z,174.59
2023-06-12T09:28:39.278Z,173.51
2023-06-12T09:29:39.296Z,173.76
2023-06-12T09:30:40.266Z,173.86
2023-06-12T09:31:39.253Z,174.08
2023-06-12T09:32:39.305Z,173.83
2023-06-12T09:33:39.164Z,174.09
2023-06-12T09:34:39.138Z,173.38
2023-06-12T09:35:39.121Z,174.35
2023-06-12T09:36:39.113Z,172.40
2023-06-12T09:37:39.092Z,174.33
2023-06-12T09:38:39.054Z,174.59
2023-06-12T09:39:39.032Z,175.00
2023-06-12T09:40:39.074Z,175.60
2023-06-12T09:41:39.018Z,175.40
2023-06-12T09:42:39.060Z,174.59
2023-06-12T09:43:38.962Z,176.02
2023-06-12T09:44:38.930Z,175.25
2023-06-12T09:45:38.917Z,175.02
2023-06-12T09:46:38.926Z,175.56
2023-06-12T09:47:38.946Z,176.07
2023-06-12T09:48:38.859Z,175.74
2023-06-12T09:49:38.863Z,175.57
2023-06-12T09:50:38.802Z,176.69
2023-06-12T09:51:38.804Z,176.96
2023-06-12T09:52:38.838Z,176.65
2023-06-12T09:53:38.841Z,176.81
2023-06-12T09:54:39.922Z,176.24
2023-06-12T09:55:38.867Z,175.98
2023-06-12T09:56:39.460Z,176.55
2023-06-12T09:57:38.901Z,176.72
2023-06-12T09:58:38.928Z,176.96
2023-06-12T09:59:38.944Z,177.60
2023-06-12T10:00:39.462Z,177.17
2023-06-12T10:01:38.970Z,176.99
2023-06-12T10:02:39.035Z,177.25
2023-06-12T10:03:39.996Z,177.37
2023-06-12T10:04:39.008Z,177.20
2023-06-12T10:05:39.974Z,176.62
2023-06-12T10:06:39.065Z,177.53
2023-06-12T10:07:39.108Z,176.16
2023-06-12T10:08:39.950Z,177.31
2023-06-12T10:09:39.116Z,177.03
2023-06-12T10:10:39.201Z,177.74
2023-06-12T10:11:39.161Z,176.97
2023-06-12T10:12:39.203Z,177.30
2023-06-12T10:13:39.220Z,176.34
2023-06-12T10:14:39.294Z,177.67
2023-06-12T10:15:39.255Z,177.14
2023-06-12T10:16:39.279Z,175.88
2023-06-12T10:17:39.312Z,176.92
2023-06-12T10:18:39.333Z,176.83
2023-06-12T10:19:39.432Z,177.09
2023-06-12T10:20:39.360Z,176.31
2023-06-12T10:21:39.468Z,176.40
2023-06-12T10:22:39.394Z,175.74
2023-06-12T10:23:39.456Z,176.63
2023-06-12T10:24:42.016Z,176.50
2023-06-12T10:25:39.670Z,176.93
2023-06-12T10:26:39.677Z,175.90
2023-06-12T10:27:39.689Z,175.50
2023-06-12T10:28:39.710Z,176.29
2023-06-12T10:29:39.758Z,176.41
2023-06-12T10:30:39.764Z,175.78
2023-06-12T10:31:39.821Z,176.00
2023-06-12T10:32:39.829Z,175.87
2023-06-12T10:33:39.925Z,176.68
2023-06-12T10:34:39.878Z,176.93
2023-06-12T10:35:39.891Z,176.58
2023-06-12T10:36:39.918Z,174.91
2023-06-12T10:37:40.473Z,176.71
2023-06-12T10:38:39.969Z,175.04
2023-06-12T10:39:39.987Z,174.48
2023-06-12T10:40:48.571Z,175.38
2023-06-12T10:41:40.989Z,175.47
2023-06-12T10:42:39.982Z,175.59
2023-06-12T10:43:47.407Z,175.75
2023-06-12T10:44:40.945Z,175.51
2023-06-12T10:45:39.966Z,175.72
2023-06-12T10:46:40.560Z,175.75
2023-06-12T10:47:39.916Z,176.17
2023-06-12T10:48:39.873Z,177.02
2023-06-12T10:49:39.863Z,175.86
2023-06-12T10:50:39.838Z,175.51
2023-06-12T10:51:39.821Z,176.40
2023-06-12T10:52:39.810Z,175.65
2023-06-12T10:53:39.801Z,174.71
2023-06-12T10:54:39.798Z,174.14
2023-06-12T10:55:39.782Z,174.31
2023-06-12T10:56:39.762Z,174.09
2023-06-12T10:57:39.734Z,174.67
2023-06-12T10:58:39.725Z,175.07
2023-06-12T10:59:39.699Z,173.45
2023-06-12T11:00:39.757Z,172.81
2023-06-12T11:01:39.818Z,172.92
2023-06-12T11:02:39.971Z,173.54
2023-06-12T11:03:39.899Z,172.07
2023-06-12T11:04:39.959Z,173.95
2023-06-12T11:05:39.898Z,173.01
2023-06-12T11:06:39.866Z,172.28
2023-06-12T11:07:39.939Z,172.10
2023-06-12T11:08:39.956Z,172.34
2023-06-12T11:09:39.937Z,172.87
2023-06-12T11:10:39.956Z,171.80
2023-06-12T11:11:39.995Z,171.55
2023-06-12T11:12:52.084Z,170.45
2023-06-12T11:13:41.036Z,170.60
2023-06-12T11:14:39.988Z,171.08
2023-06-12T11:15:39.979Z,170.89
2023-06-12T11:16:39.986Z,171.74
2023-06-12T11:17:39.972Z,173.28
2023-06-12T11:18:40.022Z,171.09
2023-06-12T11:19:39.935Z,171.66
2023-06-12T11:20:39.924Z,171.04
2023-06-12T11:21:39.919Z,171.15
2023-06-12T11:22:39.914Z,170.69
2023-06-12T11:23:39.914Z,170.50
2023-06-12T11:24:39.933Z,170.21
2023-06-12T11:25:40.033Z,169.82
2023-06-12T11:26:39.869Z,170.21
2023-06-12T11:27:39.865Z,170.20
2023-06-12T11:28:39.860Z,170.36
2023-06-12T11:29:52.473Z,169.79
2023-06-12T11:30:49.573Z,169.91
2023-06-12T11:31:41.492Z,170.00
2023-06-12T11:32:39.846Z,170.04
2023-06-12T11:33:39.874Z,170.36
2023-06-12T11:34:41.626Z,170.55
2023-06-12T11:35:39.761Z,170.14
2023-06-12T11:36:39.880Z,171.75
2023-06-12T11:39:50.610Z,171.01
2023-06-12T11:40:39.691Z,171.20
2023-06-12T11:41:39.707Z,171.28
2023-06-12T11:42:39.668Z,170.70
2023-06-12T11:43:39.658Z,171.19
2023-06-12T11:44:39.646Z,169.10
2023-06-12T11:45:39.720Z,168.71
2023-06-12T11:46:39.790Z,168.45
2023-06-12T11:49:39.711Z,169.31
2023-06-12T11:50:39.560Z,169.36
2023-06-12T11:51:39.543Z,169.40
2023-06-12T11:52:39.529Z,169.71
2023-06-12T11:53:39.519Z,168.14
2023-06-12T11:57:39.467Z,168.41
2023-06-12T11:58:39.443Z,168.53
2023-06-12T11:59:39.426Z,168.71
2023-06-12T12:00:39.417Z,168.89
2023-06-12T12:01:39.465Z,168.42
2023-06-12T12:02:39.494Z,167.24
2023-06-12T12:03:39.402Z,167.56
2023-06-12T12:04:39.444Z,166.24
2023-06-12T12:05:39.384Z,166.86
2023-06-12T12:06:39.344Z,164.71
2023-06-12T12:07:39.334Z,166.86
2023-06-12T12:08:39.343Z,165.18
2023-06-12T12:09:39.301Z,164.47
2023-06-12T12:10:39.291Z,165.56
2023-06-12T12:11:39.278Z,164.11
2023-06-12T12:12:39.273Z,164.66
2023-06-12T12:13:39.273Z,163.82
2023-06-12T12:14:39.242Z,163.83
2023-06-12T12:15:39.264Z,164.46
2023-06-12T12:16:39.224Z,163.27
2023-06-12T12:17:39.229Z,164.61
2023-06-12T12:18:39.181Z,162.28
2023-06-12T12:19:39.233Z,162.85
2023-06-12T12:20:39.140Z,163.01
2023-06-12T12:21:39.134Z,162.57
2023-06-12T12:22:39.100Z,163.21
2023-06-12T12:23:39.105Z,163.45
2023-06-12T12:24:39.067Z,162.54
2023-06-12T12:25:39.033Z,162.51
2023-06-12T12:26:39.032Z,163.59
2023-06-12T12:27:39.010Z,161.52
2023-06-12T12:28:39.002Z,161.64
2023-06-12T12:29:54.999Z,162.95
2023-06-12T12:30:40.029Z,163.09
2023-06-12T12:31:38.963Z,163.28
2023-06-12T12:32:38.997Z,163.30
2023-06-12T12:33:38.904Z,163.54
2023-06-12T12:34:38.949Z,162.96
2023-06-12T12:35:38.865Z,160.54